sensor_id;sensor_type;location;lat;lon;timestamp;P1;durP1;ratioP1;P2;durP2;ratioP2
17763;SDS011;22245;52.832;13.816;2024-02-14T00:00:42;11.43;;;6.60;;
17763;SDS011;22245;52.832;13.816;2024-02-14T00:04:04;11.83;;;6.43;;
17763;SDS011;22245;52.832;13.816;2024-02-14T00:07:29;11.37;;;7.17;;
17763;SDS011;22245;52.832;13.816;2024-02-14T00:10:50;14.17;;;8.17;;
17763;SDS011;22245;52.832;13.816;2024-02-14T00:14:11;12.07;;;7.50;;
17763;SDS011;22245;52.832;13.816;2024-02-14T00:17:32;16.93;;;7.90;;
17763;SDS011;22245;52.832;13.816;2024-02-14T00:20:54;16.23;;;8.00;;
17763;SDS011;22245;52.832;13.816;2024-02-14T00:24:18;15.63;;;7.87;;
17763;SDS011;22245;52.832;13.816;2024-02-14T00:27:39;18.10;;;9.00;;
17763;SDS011;22245;52.832;13.816;2024-02-14T00:31:02;17.23;;;8.90;;
17763;SDS011;22245;52.832;13.816;2024-02-14T00:34:23;17.63;;;9.13;;
17763;SDS011;22245;52.832;13.816;2024-02-14T00:37:45;16.50;;;8.37;;
17763;SDS011;22245;52.832;13.816;2024-02-14T00:41:08;16.37;;;8.60;;
17763;SDS011;22245;52.832;13.816;2024-02-14T00:44:31;17.07;;;8.97;;
17763;SDS011;22245;52.832;13.816;2024-02-14T00:47:53;17.67;;;9.33;;
17763;SDS011;22245;52.832;13.816;2024-02-14T00:51:14;18.67;;;8.80;;
17763;SDS011;22245;52.832;13.816;2024-02-14T00:54:36;18.17;;;8.03;;
17763;SDS011;22245;52.832;13.816;2024-02-14T00:57:59;16.33;;;9.17;;
17763;SDS011;22245;52.832;13.816;2024-02-14T01:01:21;14.50;;;7.67;;
17763;SDS011;22245;52.832;13.816;2024-02-14T01:04:42;14.57;;;7.70;;
17763;SDS011;22245;52.832;13.816;2024-02-14T01:08:04;14.43;;;8.03;;
17763;SDS011;22245;52.832;13.816;2024-02-14T01:11:27;15.97;;;8.30;;
17763;SDS011;22245;52.832;13.816;2024-02-14T01:14:50;14.23;;;7.87;;
17763;SDS011;22245;52.832;13.816;2024-02-14T01:18:11;15.17;;;7.47;;
17763;SDS011;22245;52.832;13.816;2024-02-14T01:21:33;16.50;;;7.27;;
17763;SDS011;22245;52.832;13.816;2024-02-14T01:24:55;12.53;;;7.10;;
17763;SDS011;22245;52.832;13.816;2024-02-14T01:28:18;15.17;;;7.43;;
17763;SDS011;22245;52.832;13.816;2024-02-14T01:31:40;11.77;;;7.13;;
17763;SDS011;22245;52.832;13.816;2024-02-14T01:35:02;10.87;;;7.03;;
17763;SDS011;22245;52.832;13.816;2024-02-14T01:38:24;10.30;;;6.30;;
17763;SDS011;22245;52.832;13.816;2024-02-14T01:41:45;13.53;;;6.57;;
17763;SDS011;22245;52.832;13.816;2024-02-14T01:45:08;14.03;;;7.03;;
17763;SDS011;22245;52.832;13.816;2024-02-14T01:48:31;11.30;;;6.80;;
17763;SDS011;22245;52.832;13.816;2024-02-14T01:51:53;12.50;;;6.83;;
17763;SDS011;22245;52.832;13.816;2024-02-14T01:55:20;13.97;;;6.43;;
17763;SDS011;22245;52.832;13.816;2024-02-14T01:58:42;11.77;;;6.37;;
17763;SDS011;22245;52.832;13.816;2024-02-14T02:02:05;10.17;;;6.53;;
17763;SDS011;22245;52.832;13.816;2024-02-14T02:05:29;14.70;;;6.80;;
17763;SDS011;22245;52.832;13.816;2024-02-14T02:08:51;11.77;;;6.23;;
17763;SDS011;22245;52.832;13.816;2024-02-14T02:12:13;10.53;;;6.23;;
17763;SDS011;22245;52.832;13.816;2024-02-14T02:15:35;12.47;;;6.10;;
17763;SDS011;22245;52.832;13.816;2024-02-14T02:18:57;11.93;;;5.70;;
17763;SDS011;22245;52.832;13.816;2024-02-14T02:22:20;12.90;;;6.40;;
17763;SDS011;22245;52.832;13.816;2024-02-14T02:25:43;9.60;;;6.00;;
17763;SDS011;22245;52.832;13.816;2024-02-14T02:29:04;12.60;;;5.73;;
17763;SDS011;22245;52.832;13.816;2024-02-14T02:32:26;10.40;;;6.20;;
17763;SDS011;22245;52.832;13.816;2024-02-14T02:35:48;12.73;;;6.37;;
17763;SDS011;22245;52.832;13.816;2024-02-14T02:39:11;11.80;;;5.87;;
17763;SDS011;22245;52.832;13.816;2024-02-14T02:42:35;12.93;;;5.60;;
17763;SDS011;22245;52.832;13.816;2024-02-14T02:45:57;10.90;;;5.77;;
17763;SDS011;22245;52.832;13.816;2024-02-14T02:49:19;12.37;;;6.53;;
17763;SDS011;22245;52.832;13.816;2024-02-14T02:52:41;12.60;;;6.03;;
17763;SDS011;22245;52.832;13.816;2024-02-14T02:56:03;12.47;;;6.97;;
17763;SDS011;22245;52.832;13.816;2024-02-14T02:59:26;11.03;;;5.70;;
17763;SDS011;22245;52.832;13.816;2024-02-14T03:02:50;9.27;;;5.30;;
17763;SDS011;22245;52.832;13.816;2024-02-14T03:06:11;9.77;;;5.17;;
17763;SDS011;22245;52.832;13.816;2024-02-14T03:09:33;10.77;;;5.67;;
17763;SDS011;22245;52.832;13.816;2024-02-14T03:12:55;9.93;;;5.30;;
17763;SDS011;22245;52.832;13.816;2024-02-14T03:16:17;9.13;;;5.63;;
17763;SDS011;22245;52.832;13.816;2024-02-14T03:19:39;12.27;;;5.70;;
17763;SDS011;22245;52.832;13.816;2024-02-14T03:23:01;10.17;;;5.37;;
17763;SDS011;22245;52.832;13.816;2024-02-14T03:26:23;8.63;;;5.43;;
17763;SDS011;22245;52.832;13.816;2024-02-14T03:29:46;8.33;;;5.40;;
17763;SDS011;22245;52.832;13.816;2024-02-14T03:33:09;8.30;;;4.93;;
17763;SDS011;22245;52.832;13.816;2024-02-14T03:36:31;7.70;;;4.80;;
17763;SDS011;22245;52.832;13.816;2024-02-14T03:39:53;7.50;;;4.70;;
17763;SDS011;22245;52.832;13.816;2024-02-14T03:43:14;8.60;;;5.30;;
17763;SDS011;22245;52.832;13.816;2024-02-14T03:46:35;8.90;;;5.37;;
17763;SDS011;22245;52.832;13.816;2024-02-14T03:49:58;10.93;;;5.73;;
17763;SDS011;22245;52.832;13.816;2024-02-14T03:53:20;10.63;;;6.00;;
17763;SDS011;22245;52.832;13.816;2024-02-14T03:56:41;8.97;;;5.20;;
17763;SDS011;22245;52.832;13.816;2024-02-14T04:00:03;10.33;;;5.70;;
17763;SDS011;22245;52.832;13.816;2024-02-14T04:03:32;9.87;;;6.53;;
17763;SDS011;22245;52.832;13.816;2024-02-14T04:06:55;10.33;;;6.53;;
17763;SDS011;22245;52.832;13.816;2024-02-14T04:10:18;9.30;;;5.87;;
17763;SDS011;22245;52.832;13.816;2024-02-14T04:13:40;9.23;;;5.83;;
17763;SDS011;22245;52.832;13.816;2024-02-14T04:17:01;11.53;;;5.87;;
17763;SDS011;22245;52.832;13.816;2024-02-14T04:20:23;9.70;;;6.07;;
17763;SDS011;22245;52.832;13.816;2024-02-14T04:23:46;10.23;;;6.07;;
17763;SDS011;22245;52.832;13.816;2024-02-14T04:27:07;11.33;;;6.63;;
17763;SDS011;22245;52.832;13.816;2024-02-14T04:30:29;11.03;;;6.50;;
17763;SDS011;22245;52.832;13.816;2024-02-14T04:33:50;9.53;;;5.93;;
17763;SDS011;22245;52.832;13.816;2024-02-14T04:37:13;11.73;;;6.80;;
17763;SDS011;22245;52.832;13.816;2024-02-14T04:40:36;12.13;;;7.13;;
17763;SDS011;22245;52.832;13.816;2024-02-14T04:43:58;16.70;;;7.10;;
17763;SDS011;22245;52.832;13.816;2024-02-14T04:47:19;12.17;;;7.13;;
17763;SDS011;22245;52.832;13.816;2024-02-14T04:50:41;16.03;;;8.00;;
17763;SDS011;22245;52.832;13.816;2024-02-14T04:54:02;12.33;;;7.40;;
17763;SDS011;22245;52.832;13.816;2024-02-14T04:57:27;12.10;;;7.33;;
17763;SDS011;22245;52.832;13.816;2024-02-14T05:00:48;12.57;;;7.40;;
17763;SDS011;22245;52.832;13.816;2024-02-14T05:04:10;13.60;;;7.40;;
17763;SDS011;22245;52.832;13.816;2024-02-14T05:07:32;13.67;;;7.47;;
17763;SDS011;22245;52.832;13.816;2024-02-14T05:10:54;15.70;;;8.03;;
17763;SDS011;22245;52.832;13.816;2024-02-14T05:14:17;11.90;;;6.97;;
17763;SDS011;22245;52.832;13.816;2024-02-14T05:17:41;12.37;;;7.10;;
17763;SDS011;22245;52.832;13.816;2024-02-14T05:21:04;11.93;;;7.37;;
17763;SDS011;22245;52.832;13.816;2024-02-14T05:24:27;13.60;;;7.47;;
17763;SDS011;22245;52.832;13.816;2024-02-14T05:27:49;16.93;;;7.77;;
17763;SDS011;22245;52.832;13.816;2024-02-14T05:31:12;14.07;;;7.90;;
17763;SDS011;22245;52.832;13.816;2024-02-14T05:34:34;13.53;;;8.60;;
17763;SDS011;22245;52.832;13.816;2024-02-14T05:37:55;16.23;;;7.70;;
17763;SDS011;22245;52.832;13.816;2024-02-14T05:41:17;12.37;;;7.20;;
17763;SDS011;22245;52.832;13.816;2024-02-14T05:44:38;14.30;;;8.07;;
17763;SDS011;22245;52.832;13.816;2024-02-14T05:48:02;14.23;;;7.73;;
17763;SDS011;22245;52.832;13.816;2024-02-14T05:51:24;15.70;;;8.10;;
17763;SDS011;22245;52.832;13.816;2024-02-14T05:54:46;13.73;;;7.97;;
17763;SDS011;22245;52.832;13.816;2024-02-14T05:58:08;13.00;;;8.07;;
17763;SDS011;22245;52.832;13.816;2024-02-14T06:01:30;15.83;;;8.27;;
17763;SDS011;22245;52.832;13.816;2024-02-14T06:04:53;12.27;;;8.13;;
17763;SDS011;22245;52.832;13.816;2024-02-14T06:08:14;14.03;;;8.37;;
17763;SDS011;22245;52.832;13.816;2024-02-14T06:11:36;13.27;;;8.40;;
17763;SDS011;22245;52.832;13.816;2024-02-14T06:15:00;13.77;;;8.10;;
17763;SDS011;22245;52.832;13.816;2024-02-14T06:18:21;16.33;;;8.27;;
17763;SDS011;22245;52.832;13.816;2024-02-14T06:21:45;15.03;;;7.60;;
17763;SDS011;22245;52.832;13.816;2024-02-14T06:25:07;14.97;;;8.43;;
17763;SDS011;22245;52.832;13.816;2024-02-14T06:28:28;19.57;;;9.13;;
17763;SDS011;22245;52.832;13.816;2024-02-14T06:31:50;15.47;;;8.70;;
17763;SDS011;22245;52.832;13.816;2024-02-14T06:35:11;13.13;;;8.23;;
17763;SDS011;22245;52.832;13.816;2024-02-14T06:38:37;14.67;;;9.27;;
17763;SDS011;22245;52.832;13.816;2024-02-14T06:41:58;16.13;;;9.43;;
17763;SDS011;22245;52.832;13.816;2024-02-14T06:45:20;15.97;;;9.50;;
17763;SDS011;22245;52.832;13.816;2024-02-14T06:48:41;17.67;;;9.50;;
17763;SDS011;22245;52.832;13.816;2024-02-14T06:52:03;14.10;;;8.20;;
17763;SDS011;22245;52.832;13.816;2024-02-14T06:55:26;13.83;;;8.27;;
17763;SDS011;22245;52.832;13.816;2024-02-14T06:58:48;14.17;;;8.13;;
17763;SDS011;22245;52.832;13.816;2024-02-14T07:02:13;14.87;;;8.60;;
17763;SDS011;22245;52.832;13.816;2024-02-14T07:05:34;14.83;;;7.87;;
17763;SDS011;22245;52.832;13.816;2024-02-14T07:08:56;11.13;;;7.47;;
17763;SDS011;22245;52.832;13.816;2024-02-14T07:12:19;13.30;;;7.63;;
17763;SDS011;22245;52.832;13.816;2024-02-14T07:15:41;16.97;;;8.53;;
17763;SDS011;22245;52.832;13.816;2024-02-14T07:19:03;13.20;;;7.77;;
17763;SDS011;22245;52.832;13.816;2024-02-14T07:22:25;10.70;;;7.53;;
17763;SDS011;22245;52.832;13.816;2024-02-14T07:25:46;12.43;;;7.77;;
17763;SDS011;22245;52.832;13.816;2024-02-14T07:29:09;13.30;;;8.57;;
17763;SDS011;22245;52.832;13.816;2024-02-14T07:32:30;14.40;;;7.90;;
17763;SDS011;22245;52.832;13.816;2024-02-14T07:35:52;14.37;;;8.43;;
17763;SDS011;22245;52.832;13.816;2024-02-14T07:39:13;15.90;;;8.00;;
17763;SDS011;22245;52.832;13.816;2024-02-14T07:42:35;14.93;;;8.53;;
17763;SDS011;22245;52.832;13.816;2024-02-14T07:45:58;13.80;;;8.63;;
17763;SDS011;22245;52.832;13.816;2024-02-14T07:49:20;12.43;;;8.37;;
17763;SDS011;22245;52.832;13.816;2024-02-14T07:52:41;13.50;;;8.27;;
17763;SDS011;22245;52.832;13.816;2024-02-14T07:56:03;15.93;;;8.07;;
17763;SDS011;22245;52.832;13.816;2024-02-14T07:59:26;16.47;;;8.13;;
17763;SDS011;22245;52.832;13.816;2024-02-14T08:02:52;12.63;;;8.07;;
17763;SDS011;22245;52.832;13.816;2024-02-14T08:06:14;12.50;;;7.80;;
17763;SDS011;22245;52.832;13.816;2024-02-14T08:09:36;14.90;;;9.00;;
17763;SDS011;22245;52.832;13.816;2024-02-14T08:12:59;13.87;;;8.13;;
17763;SDS011;22245;52.832;13.816;2024-02-14T08:16:20;13.57;;;8.03;;
17763;SDS011;22245;52.832;13.816;2024-02-14T08:19:42;14.07;;;8.47;;
17763;SDS011;22245;52.832;13.816;2024-02-14T08:23:04;11.63;;;8.10;;
17763;SDS011;22245;52.832;13.816;2024-02-14T08:26:26;14.20;;;8.47;;
17763;SDS011;22245;52.832;13.816;2024-02-14T08:29:48;15.70;;;8.40;;
17763;SDS011;22245;52.832;13.816;2024-02-14T08:33:10;13.50;;;7.60;;
17763;SDS011;22245;52.832;13.816;2024-02-14T08:36:33;11.57;;;7.87;;
17763;SDS011;22245;52.832;13.816;2024-02-14T08:40:00;11.07;;;7.87;;
17763;SDS011;22245;52.832;13.816;2024-02-14T08:43:22;12.07;;;7.83;;
17763;SDS011;22245;52.832;13.816;2024-02-14T08:46:44;13.37;;;7.90;;
17763;SDS011;22245;52.832;13.816;2024-02-14T08:50:08;13.03;;;7.37;;
17763;SDS011;22245;52.832;13.816;2024-02-14T08:53:32;10.87;;;7.27;;
17763;SDS011;22245;52.832;13.816;2024-02-14T08:56:53;11.90;;;7.00;;
17763;SDS011;22245;52.832;13.816;2024-02-14T09:00:18;12.57;;;7.80;;
17763;SDS011;22245;52.832;13.816;2024-02-14T09:03:42;11.53;;;7.43;;
17763;SDS011;22245;52.832;13.816;2024-02-14T09:07:10;8.47;;;5.33;;
17763;SDS011;22245;52.832;13.816;2024-02-14T09:10:32;11.47;;;5.20;;
17763;SDS011;22245;52.832;13.816;2024-02-14T09:13:54;7.50;;;4.60;;
17763;SDS011;22245;52.832;13.816;2024-02-14T09:17:22;8.30;;;3.93;;
17763;SDS011;22245;52.832;13.816;2024-02-14T09:20:44;7.37;;;4.00;;
17763;SDS011;22245;52.832;13.816;2024-02-14T09:24:06;6.27;;;3.83;;
17763;SDS011;22245;52.832;13.816;2024-02-14T09:27:29;6.77;;;3.73;;
17763;SDS011;22245;52.832;13.816;2024-02-14T09:30:51;7.33;;;4.00;;
17763;SDS011;22245;52.832;13.816;2024-02-14T09:34:12;7.73;;;3.70;;
17763;SDS011;22245;52.832;13.816;2024-02-14T09:37:35;8.77;;;3.77;;
17763;SDS011;22245;52.832;13.816;2024-02-14T09:40:58;5.50;;;3.60;;
17763;SDS011;22245;52.832;13.816;2024-02-14T09:44:28;6.10;;;3.53;;
17763;SDS011;22245;52.832;13.816;2024-02-14T09:47:50;7.33;;;3.80;;
17763;SDS011;22245;52.832;13.816;2024-02-14T09:51:13;6.73;;;3.77;;
17763;SDS011;22245;52.832;13.816;2024-02-14T09:54:35;7.03;;;4.00;;
17763;SDS011;22245;52.832;13.816;2024-02-14T09:57:59;8.37;;;3.70;;
17763;SDS011;22245;52.832;13.816;2024-02-14T10:01:25;7.77;;;4.30;;
17763;SDS011;22245;52.832;13.816;2024-02-14T10:04:47;8.40;;;4.63;;
17763;SDS011;22245;52.832;13.816;2024-02-14T10:08:09;8.83;;;5.00;;
17763;SDS011;22245;52.832;13.816;2024-02-14T10:11:32;6.83;;;4.33;;
17763;SDS011;22245;52.832;13.816;2024-02-14T10:14:55;7.50;;;4.20;;
17763;SDS011;22245;52.832;13.816;2024-02-14T10:18:18;7.67;;;4.40;;
17763;SDS011;22245;52.832;13.816;2024-02-14T10:21:40;7.70;;;3.90;;
17763;SDS011;22245;52.832;13.816;2024-02-14T10:25:05;6.53;;;4.17;;
17763;SDS011;22245;52.832;13.816;2024-02-14T10:28:29;6.73;;;3.90;;
17763;SDS011;22245;52.832;13.816;2024-02-14T10:32:02;6.87;;;3.67;;
17763;SDS011;22245;52.832;13.816;2024-02-14T10:35:25;6.17;;;3.87;;
17763;SDS011;22245;52.832;13.816;2024-02-14T10:38:49;8.07;;;3.93;;
17763;SDS011;22245;52.832;13.816;2024-02-14T10:42:13;8.43;;;3.97;;
17763;SDS011;22245;52.832;13.816;2024-02-14T10:45:34;8.17;;;3.83;;
17763;SDS011;22245;52.832;13.816;2024-02-14T10:48:58;6.80;;;3.80;;
17763;SDS011;22245;52.832;13.816;2024-02-14T10:52:24;7.00;;;3.63;;
17763;SDS011;22245;52.832;13.816;2024-02-14T10:55:49;6.20;;;3.93;;
17763;SDS011;22245;52.832;13.816;2024-02-14T10:59:13;7.97;;;3.97;;
17763;SDS011;22245;52.832;13.816;2024-02-14T11:02:38;7.53;;;3.43;;
17763;SDS011;22245;52.832;13.816;2024-02-14T11:06:01;6.67;;;3.57;;
17763;SDS011;22245;52.832;13.816;2024-02-14T11:09:32;9.27;;;3.93;;
17763;SDS011;22245;52.832;13.816;2024-02-14T11:12:57;6.30;;;3.90;;
17763;SDS011;22245;52.832;13.816;2024-02-14T11:16:27;6.77;;;4.07;;
17763;SDS011;22245;52.832;13.816;2024-02-14T11:19:50;6.57;;;4.10;;
17763;SDS011;22245;52.832;13.816;2024-02-14T11:23:11;6.03;;;4.07;;
17763;SDS011;22245;52.832;13.816;2024-02-14T11:26:38;7.50;;;4.30;;
17763;SDS011;22245;52.832;13.816;2024-02-14T11:30:00;6.80;;;4.20;;
17763;SDS011;22245;52.832;13.816;2024-02-14T11:33:24;7.30;;;3.80;;
17763;SDS011;22245;52.832;13.816;2024-02-14T11:36:46;6.20;;;3.60;;
17763;SDS011;22245;52.832;13.816;2024-02-14T11:40:07;7.80;;;4.03;;
17763;SDS011;22245;52.832;13.816;2024-02-14T11:43:31;5.43;;;3.77;;
17763;SDS011;22245;52.832;13.816;2024-02-14T11:46:52;6.70;;;4.40;;
17763;SDS011;22245;52.832;13.816;2024-02-14T11:50:15;6.40;;;3.80;;
17763;SDS011;22245;52.832;13.816;2024-02-14T11:53:39;5.67;;;4.23;;
17763;SDS011;22245;52.832;13.816;2024-02-14T11:57:01;6.40;;;4.17;;
17763;SDS011;22245;52.832;13.816;2024-02-14T12:00:24;6.77;;;3.93;;
17763;SDS011;22245;52.832;13.816;2024-02-14T12:03:45;6.27;;;4.17;;
17763;SDS011;22245;52.832;13.816;2024-02-14T12:07:07;6.83;;;4.60;;
17763;SDS011;22245;52.832;13.816;2024-02-14T12:10:31;5.67;;;4.20;;
17763;SDS011;22245;52.832;13.816;2024-02-14T12:13:52;8.73;;;4.53;;
17763;SDS011;22245;52.832;13.816;2024-02-14T12:17:15;5.40;;;3.97;;
17763;SDS011;22245;52.832;13.816;2024-02-14T12:20:38;6.90;;;3.70;;
17763;SDS011;22245;52.832;13.816;2024-02-14T12:24:01;7.20;;;4.40;;
17763;SDS011;22245;52.832;13.816;2024-02-14T12:27:23;7.83;;;4.00;;
17763;SDS011;22245;52.832;13.816;2024-02-14T12:30:46;6.80;;;4.27;;
17763;SDS011;22245;52.832;13.816;2024-02-14T12:34:11;7.03;;;4.07;;
17763;SDS011;22245;52.832;13.816;2024-02-14T12:37:34;9.63;;;4.60;;
17763;SDS011;22245;52.832;13.816;2024-02-14T12:40:55;5.40;;;3.90;;
17763;SDS011;22245;52.832;13.816;2024-02-14T12:44:17;7.07;;;4.13;;
17763;SDS011;22245;52.832;13.816;2024-02-14T12:47:38;7.03;;;4.63;;
17763;SDS011;22245;52.832;13.816;2024-02-14T12:51:05;7.50;;;4.30;;
17763;SDS011;22245;52.832;13.816;2024-02-14T12:54:27;7.27;;;4.80;;
17763;SDS011;22245;52.832;13.816;2024-02-14T12:57:48;6.37;;;4.00;;
17763;SDS011;22245;52.832;13.816;2024-02-14T13:01:10;6.20;;;3.97;;
17763;SDS011;22245;52.832;13.816;2024-02-14T13:04:32;7.50;;;4.53;;
17763;SDS011;22245;52.832;13.816;2024-02-14T13:07:56;12.23;;;4.73;;
17763;SDS011;22245;52.832;13.816;2024-02-14T13:11:17;8.00;;;5.07;;
17763;SDS011;22245;52.832;13.816;2024-02-14T13:14:39;8.07;;;4.20;;
17763;SDS011;22245;52.832;13.816;2024-02-14T13:18:01;6.50;;;4.30;;
17763;SDS011;22245;52.832;13.816;2024-02-14T13:21:23;4.70;;;4.17;;
17763;SDS011;22245;52.832;13.816;2024-02-14T13:24:46;6.50;;;4.33;;
17763;SDS011;22245;52.832;13.816;2024-02-14T13:28:08;7.30;;;4.50;;
17763;SDS011;22245;52.832;13.816;2024-02-14T13:31:29;5.03;;;4.00;;
17763;SDS011;22245;52.832;13.816;2024-02-14T13:34:51;7.00;;;4.47;;
17763;SDS011;22245;52.832;13.816;2024-02-14T13:38:13;11.53;;;6.23;;
17763;SDS011;22245;52.832;13.816;2024-02-14T13:41:36;6.03;;;4.40;;
17763;SDS011;22245;52.832;13.816;2024-02-14T13:44:58;9.00;;;4.97;;
17763;SDS011;22245;52.832;13.816;2024-02-14T13:48:20;7.83;;;4.80;;
17763;SDS011;22245;52.832;13.816;2024-02-14T13:51:42;5.97;;;4.77;;
17763;SDS011;22245;52.832;13.816;2024-02-14T13:55:03;9.30;;;4.70;;
17763;SDS011;22245;52.832;13.816;2024-02-14T13:58:29;7.37;;;4.90;;
17763;SDS011;22245;52.832;13.816;2024-02-14T14:01:50;8.47;;;5.10;;
17763;SDS011;22245;52.832;13.816;2024-02-14T14:05:11;8.73;;;5.10;;
17763;SDS011;22245;52.832;13.816;2024-02-14T14:08:37;7.50;;;4.87;;
17763;SDS011;22245;52.832;13.816;2024-02-14T14:11:59;6.00;;;5.00;;
17763;SDS011;22245;52.832;13.816;2024-02-14T14:15:22;7.77;;;5.00;;
17763;SDS011;22245;52.832;13.816;2024-02-14T14:18:44;8.67;;;5.30;;
17763;SDS011;22245;52.832;13.816;2024-02-14T14:22:06;6.27;;;4.50;;
17763;SDS011;22245;52.832;13.816;2024-02-14T14:25:29;8.13;;;5.23;;
17763;SDS011;22245;52.832;13.816;2024-02-14T14:28:50;6.47;;;4.50;;
17763;SDS011;22245;52.832;13.816;2024-02-14T14:32:15;7.23;;;5.10;;
17763;SDS011;22245;52.832;13.816;2024-02-14T14:35:37;10.10;;;5.03;;
17763;SDS011;22245;52.832;13.816;2024-02-14T14:38:59;9.33;;;5.10;;
17763;SDS011;22245;52.832;13.816;2024-02-14T14:42:21;7.57;;;4.80;;
17763;SDS011;22245;52.832;13.816;2024-02-14T14:45:42;7.00;;;4.83;;
17763;SDS011;22245;52.832;13.816;2024-02-14T14:49:07;7.00;;;4.43;;
17763;SDS011;22245;52.832;13.816;2024-02-14T14:52:29;7.97;;;4.60;;
17763;SDS011;22245;52.832;13.816;2024-02-14T14:55:53;6.10;;;4.20;;
17763;SDS011;22245;52.832;13.816;2024-02-14T14:59:16;6.33;;;4.60;;
17763;SDS011;22245;52.832;13.816;2024-02-14T15:02:39;10.67;;;6.53;;
17763;SDS011;22245;52.832;13.816;2024-02-14T15:06:02;11.70;;;5.33;;
17763;SDS011;22245;52.832;13.816;2024-02-14T15:09:24;6.90;;;5.60;;
17763;SDS011;22245;52.832;13.816;2024-02-14T15:12:49;7.00;;;4.80;;
17763;SDS011;22245;52.832;13.816;2024-02-14T15:16:11;6.00;;;4.60;;
17763;SDS011;22245;52.832;13.816;2024-02-14T15:19:33;6.63;;;5.37;;
17763;SDS011;22245;52.832;13.816;2024-02-14T15:22:56;4.97;;;4.57;;
17763;SDS011;22245;52.832;13.816;2024-02-14T15:26:24;6.27;;;5.17;;
17763;SDS011;22245;52.832;13.816;2024-02-14T15:29:45;6.57;;;4.67;;
17763;SDS011;22245;52.832;13.816;2024-02-14T15:33:24;5.03;;;4.53;;
17763;SDS011;22245;52.832;13.816;2024-02-14T15:36:46;5.53;;;4.90;;
17763;SDS011;22245;52.832;13.816;2024-02-14T15:40:10;5.73;;;4.40;;
17763;SDS011;22245;52.832;13.816;2024-02-14T15:43:33;5.63;;;4.80;;
17763;SDS011;22245;52.832;13.816;2024-02-14T15:46:54;6.37;;;4.60;;
17763;SDS011;22245;52.832;13.816;2024-02-14T15:50:15;5.77;;;4.67;;
17763;SDS011;22245;52.832;13.816;2024-02-14T15:53:37;6.67;;;4.83;;
17763;SDS011;22245;52.832;13.816;2024-02-14T15:57:01;6.93;;;4.70;;
17763;SDS011;22245;52.832;13.816;2024-02-14T16:00:23;5.13;;;4.50;;
17763;SDS011;22245;52.832;13.816;2024-02-14T16:03:45;7.33;;;5.37;;
17763;SDS011;22245;52.832;13.816;2024-02-14T16:07:07;6.97;;;5.57;;
17763;SDS011;22245;52.832;13.816;2024-02-14T16:10:29;7.43;;;5.50;;
17763;SDS011;22245;52.832;13.816;2024-02-14T16:13:51;7.17;;;5.60;;
17763;SDS011;22245;52.832;13.816;2024-02-14T16:17:13;7.07;;;5.80;;
17763;SDS011;22245;52.832;13.816;2024-02-14T16:20:34;8.33;;;5.93;;
17763;SDS011;22245;52.832;13.816;2024-02-14T16:23:57;7.50;;;5.90;;
17763;SDS011;22245;52.832;13.816;2024-02-14T16:27:20;11.87;;;6.07;;
17763;SDS011;22245;52.832;13.816;2024-02-14T16:30:43;8.20;;;6.68;;
17763;SDS011;22245;52.832;13.816;2024-02-14T16:34:05;8.10;;;6.13;;
17763;SDS011;22245;52.832;13.816;2024-02-14T16:37:29;7.70;;;6.20;;
17763;SDS011;22245;52.832;13.816;2024-02-14T16:40:57;9.33;;;7.20;;
17763;SDS011;22245;52.832;13.816;2024-02-14T16:45:25;9.53;;;7.43;;
17763;SDS011;22245;52.832;13.816;2024-02-14T16:48:50;10.27;;;7.20;;
17763;SDS011;22245;52.832;13.816;2024-02-14T16:52:13;17.87;;;11.23;;
17763;SDS011;22245;52.832;13.816;2024-02-14T16:55:34;12.37;;;8.93;;
17763;SDS011;22245;52.832;13.816;2024-02-14T16:58:56;13.97;;;10.63;;
17763;SDS011;22245;52.832;13.816;2024-02-14T17:02:18;18.07;;;12.90;;
17763;SDS011;22245;52.832;13.816;2024-02-14T17:05:40;12.57;;;10.20;;
17763;SDS011;22245;52.832;13.816;2024-02-14T17:09:03;13.40;;;10.00;;
17763;SDS011;22245;52.832;13.816;2024-02-14T17:12:24;15.97;;;10.97;;
17763;SDS011;22245;52.832;13.816;2024-02-14T17:15:46;12.90;;;10.03;;
17763;SDS011;22245;52.832;13.816;2024-02-14T17:19:08;12.47;;;9.00;;
17763;SDS011;22245;52.832;13.816;2024-02-14T17:22:32;12.47;;;7.97;;
17763;SDS011;22245;52.832;13.816;2024-02-14T17:25:54;12.53;;;8.87;;
17763;SDS011;22245;52.832;13.816;2024-02-14T17:29:16;11.27;;;7.80;;
17763;SDS011;22245;52.832;13.816;2024-02-14T17:32:38;12.63;;;8.07;;
17763;SDS011;22245;52.832;13.816;2024-02-14T17:36:06;12.70;;;7.87;;
17763;SDS011;22245;52.832;13.816;2024-02-14T17:39:30;13.37;;;7.47;;
17763;SDS011;22245;52.832;13.816;2024-02-14T17:42:51;10.50;;;7.27;;
17763;SDS011;22245;52.832;13.816;2024-02-14T17:46:13;11.80;;;7.60;;
17763;SDS011;22245;52.832;13.816;2024-02-14T17:49:35;10.70;;;7.23;;
17763;SDS011;22245;52.832;13.816;2024-02-14T17:52:57;12.05;;;8.07;;
17763;SDS011;22245;52.832;13.816;2024-02-14T17:56:19;13.20;;;8.75;;
17763;SDS011;22245;52.832;13.816;2024-02-14T17:59:41;13.03;;;8.70;;
17763;SDS011;22245;52.832;13.816;2024-02-14T18:03:03;14.53;;;9.10;;
17763;SDS011;22245;52.832;13.816;2024-02-14T18:06:25;14.00;;;7.90;;
17763;SDS011;22245;52.832;13.816;2024-02-14T18:09:47;11.87;;;8.70;;
17763;SDS011;22245;52.832;13.816;2024-02-14T18:13:09;12.13;;;7.93;;
17763;SDS011;22245;52.832;13.816;2024-02-14T18:16:32;12.07;;;8.40;;
17763;SDS011;22245;52.832;13.816;2024-02-14T18:19:53;12.38;;;8.75;;
17763;SDS011;22245;52.832;13.816;2024-02-14T18:23:15;11.93;;;8.73;;
17763;SDS011;22245;52.832;13.816;2024-02-14T18:26:38;14.20;;;7.60;;
17763;SDS011;22245;52.832;13.816;2024-02-14T18:30:00;10.67;;;8.03;;
17763;SDS011;22245;52.832;13.816;2024-02-14T18:33:23;11.27;;;8.18;;
17763;SDS011;22245;52.832;13.816;2024-02-14T18:36:45;9.85;;;7.57;;
17763;SDS011;22245;52.832;13.816;2024-02-14T18:40:08;9.68;;;8.07;;
17763;SDS011;22245;52.832;13.816;2024-02-14T18:43:30;14.67;;;8.13;;
17763;SDS011;22245;52.832;13.816;2024-02-14T18:46:53;12.07;;;8.00;;
17763;SDS011;22245;52.832;13.816;2024-02-14T18:50:15;10.87;;;8.30;;
17763;SDS011;22245;52.832;13.816;2024-02-14T18:53:37;10.07;;;7.55;;
17763;SDS011;22245;52.832;13.816;2024-02-14T18:56:59;10.05;;;7.10;;
17763;SDS011;22245;52.832;13.816;2024-02-14T19:00:24;9.60;;;7.03;;
17763;SDS011;22245;52.832;13.816;2024-02-14T19:03:47;9.77;;;7.27;;
17763;SDS011;22245;52.832;13.816;2024-02-14T19:07:09;11.20;;;7.75;;
17763;SDS011;22245;52.832;13.816;2024-02-14T19:10:31;9.87;;;6.60;;
17763;SDS011;22245;52.832;13.816;2024-02-14T19:13:52;9.45;;;6.85;;
17763;SDS011;22245;52.832;13.816;2024-02-14T19:17:14;8.97;;;6.70;;
17763;SDS011;22245;52.832;13.816;2024-02-14T19:20:37;9.55;;;6.72;;
17763;SDS011;22245;52.832;13.816;2024-02-14T19:23:59;8.87;;;6.47;;
17763;SDS011;22245;52.832;13.816;2024-02-14T19:27:20;11.77;;;6.72;;
17763;SDS011;22245;52.832;13.816;2024-02-14T19:30:42;10.95;;;6.35;;
17763;SDS011;22245;52.832;13.816;2024-02-14T19:34:04;13.75;;;6.53;;
17763;SDS011;22245;52.832;13.816;2024-02-14T19:37:29;9.05;;;6.10;;
17763;SDS011;22245;52.832;13.816;2024-02-14T19:40:51;9.45;;;6.13;;
17763;SDS011;22245;52.832;13.816;2024-02-14T19:44:13;11.60;;;6.60;;
17763;SDS011;22245;52.832;13.816;2024-02-14T19:47:34;9.87;;;6.20;;
17763;SDS011;22245;52.832;13.816;2024-02-14T19:50:58;11.57;;;6.03;;